sensor_id;sensor_type;location;lat;lon;timestamp;pressure;altitude;pressure_sealevel;temperature;humidity
82619;BME280;72286;12.138;-68.936;2023-09-18T00:00:47;100991.85;;;29.56;68.63
82619;BME280;72286;12.138;-68.936;2023-09-18T00:04:27;100998.80;;;29.52;68.47
82619;BME280;72286;12.138;-68.936;2023-09-18T00:08:04;100998.33;;;29.56;68.16
82619;BME280;72286;12.138;-68.936;2023-09-18T00:11:43;100998.92;;;29.53;68.06
82619;BME280;72286;12.138;-68.936;2023-09-18T00:15:20;100997.52;;;29.49;68.23
82619;BME280;72286;12.138;-68.936;2023-09-18T00:18:58;101005.40;;;29.46;68.58
82619;BME280;72286;12.138;-68.936;2023-09-18T00:22:35;101000.46;;;29.45;68.59
82619;BME280;72286;12.138;-68.936;2023-09-18T00:26:13;101004.40;;;29.47;68.87
82619;BME280;72286;12.138;-68.936;2023-09-18T00:29:50;101002.27;;;29.43;68.76
82619;BME280;72286;12.138;-68.936;2023-09-18T00:33:29;101004.58;;;29.45;68.95
82619;BME280;72286;12.138;-68.936;2023-09-18T00:37:06;101007.98;;;29.43;69.58
82619;BME280;72286;12.138;-68.936;2023-09-18T00:40:44;101014.48;;;29.39;69.79
82619;BME280;72286;12.138;-68.936;2023-09-18T00:44:21;101013.55;;;29.36;69.81
82619;BME280;72286;12.138;-68.936;2023-09-18T00:48:00;101022.94;;;29.34;70.24
82619;BME280;72286;12.138;-68.936;2023-09-18T00:51:37;101028.28;;;29.27;70.57
82619;BME280;72286;12.138;-68.936;2023-09-18T00:55:16;101030.95;;;29.26;70.13
82619;BME280;72286;12.138;-68.936;2023-09-18T00:58:53;101029.66;;;29.32;69.55
82619;BME280;72286;12.138;-68.936;2023-09-18T01:02:32;101029.13;;;29.28;69.31
82619;BME280;72286;12.138;-68.936;2023-09-18T01:06:08;101030.59;;;29.31;69.02
82619;BME280;72286;12.138;-68.936;2023-09-18T01:09:47;101024.67;;;29.22;69.28
82619;BME280;72286;12.138;-68.936;2023-09-18T01:13:30;101029.13;;;29.24;69.02
82619;BME280;72286;12.138;-68.936;2023-09-18T01:17:11;101031.98;;;29.19;69.82
82619;BME280;72286;12.138;-68.936;2023-09-18T01:20:49;101037.98;;;29.24;69.62
82619;BME280;72286;12.138;-68.936;2023-09-18T01:24:28;101040.63;;;29.20;69.27
82619;BME280;72286;12.138;-68.936;2023-09-18T01:28:05;101039.55;;;29.22;69.24
82619;BME280;72286;12.138;-68.936;2023-09-18T01:31:43;101050.90;;;29.29;69.40
82619;BME280;72286;12.138;-68.936;2023-09-18T01:35:21;101057.47;;;29.28;69.19
82619;BME280;72286;12.138;-68.936;2023-09-18T01:39:06;101063.02;;;29.25;68.94
82619;BME280;72286;12.138;-68.936;2023-09-18T01:42:43;101062.44;;;29.29;68.81
82619;BME280;72286;12.138;-68.936;2023-09-18T01:46:22;101067.18;;;29.23;69.07
82619;BME280;72286;12.138;-68.936;2023-09-18T01:50:03;101071.12;;;29.25;69.32
82619;BME280;72286;12.138;-68.936;2023-09-18T01:53:43;101074.02;;;29.30;69.27
82619;BME280;72286;12.138;-68.936;2023-09-18T01:57:20;101078.90;;;29.27;69.43
82619;BME280;72286;12.138;-68.936;2023-09-18T02:01:01;101084.92;;;29.32;68.75
82619;BME280;72286;12.138;-68.936;2023-09-18T02:04:39;101091.24;;;29.29;68.89
82619;BME280;72286;12.138;-68.936;2023-09-18T02:08:17;101095.23;;;29.27;69.19
82619;BME280;72286;12.138;-68.936;2023-09-18T02:11:54;101093.18;;;29.26;68.90
82619;BME280;72286;12.138;-68.936;2023-09-18T02:15:32;101103.61;;;29.24;69.01
82619;BME280;72286;12.138;-68.936;2023-09-18T02:19:13;101106.77;;;29.30;68.96
82619;BME280;72286;12.138;-68.936;2023-09-18T02:22:50;101107.05;;;29.31;68.84
82619;BME280;72286;12.138;-68.936;2023-09-18T02:26:28;101111.34;;;29.20;69.34
82619;BME280;72286;12.138;-68.936;2023-09-18T02:30:06;101124.88;;;29.25;69.19
82619;BME280;72286;12.138;-68.936;2023-09-18T02:33:44;101128.42;;;29.28;68.73
82619;BME280;72286;12.138;-68.936;2023-09-18T02:37:23;101132.33;;;29.25;68.76
82619;BME280;72286;12.138;-68.936;2023-09-18T02:41:01;101136.80;;;29.27;68.56
82619;BME280;72286;12.138;-68.936;2023-09-18T02:44:39;101135.76;;;29.24;69.00
82619;BME280;72286;12.138;-68.936;2023-09-18T02:48:16;101136.01;;;29.16;69.85
82619;BME280;72286;12.138;-68.936;2023-09-18T02:51:54;101142.70;;;29.20;69.70
82619;BME280;72286;12.138;-68.936;2023-09-18T02:55:31;101152.09;;;29.25;69.36
82619;BME280;72286;12.138;-68.936;2023-09-18T02:59:10;101155.56;;;29.20;69.41
82619;BME280;72286;12.138;-68.936;2023-09-18T03:02:46;101148.06;;;29.24;69.27
82619;BME280;72286;12.138;-68.936;2023-09-18T03:06:25;101151.51;;;29.24;69.40
82619;BME280;72286;12.138;-68.936;2023-09-18T03:10:02;101161.57;;;29.25;69.29
82619;BME280;72286;12.138;-68.936;2023-09-18T03:13:44;101162.38;;;29.23;69.15
82619;BME280;72286;12.138;-68.936;2023-09-18T03:17:22;101164.53;;;29.21;69.10
82619;BME280;72286;12.138;-68.936;2023-09-18T03:21:01;101167.43;;;29.21;69.12
82619;BME280;72286;12.138;-68.936;2023-09-18T03:24:38;101172.52;;;29.22;68.93
82619;BME280;72286;12.138;-68.936;2023-09-18T03:28:16;101159.78;;;29.21;69.14
82619;BME280;72286;12.138;-68.936;2023-09-18T03:31:53;101162.89;;;29.23;69.55
82619;BME280;72286;12.138;-68.936;2023-09-18T03:35:45;101167.48;;;29.24;69.83
82619;BME280;72286;12.138;-68.936;2023-09-18T03:39:23;101163.67;;;29.26;69.68
82619;BME280;72286;12.138;-68.936;2023-09-18T03:43:02;101156.23;;;29.27;70.17
82619;BME280;72286;12.138;-68.936;2023-09-18T03:46:38;101160.23;;;29.26;70.10
82619;BME280;72286;12.138;-68.936;2023-09-18T03:50:17;101157.41;;;29.22;70.46
82619;BME280;72286;12.138;-68.936;2023-09-18T03:53:54;101161.55;;;29.19;70.17
82619;BME280;72286;12.138;-68.936;2023-09-18T03:57:33;101155.36;;;29.21;70.30
82619;BME280;72286;12.138;-68.936;2023-09-18T04:01:10;101155.20;;;29.20;70.06
82619;BME280;72286;12.138;-68.936;2023-09-18T04:04:48;101152.10;;;29.19;69.92
82619;BME280;72286;12.138;-68.936;2023-09-18T04:08:25;101149.23;;;29.17;70.28
82619;BME280;72286;12.138;-68.936;2023-09-18T04:12:04;101141.80;;;29.17;70.21
82619;BME280;72286;12.138;-68.936;2023-09-18T04:15:44;101144.73;;;29.17;70.47
82619;BME280;72286;12.138;-68.936;2023-09-18T04:19:22;101137.83;;;29.14;70.54
82619;BME280;72286;12.138;-68.936;2023-09-18T04:23:21;101130.37;;;29.13;70.62
82619;BME280;72286;12.138;-68.936;2023-09-18T04:26:58;101134.71;;;29.13;70.93
82619;BME280;72286;12.138;-68.936;2023-09-18T04:30:35;101125.84;;;29.10;71.15
82619;BME280;72286;12.138;-68.936;2023-09-18T04:34:14;101114.09;;;29.08;71.02
82619;BME280;72286;12.138;-68.936;2023-09-18T04:37:55;101115.84;;;29.09;71.37
82619;BME280;72286;12.138;-68.936;2023-09-18T04:41:33;101117.69;;;29.08;71.35
82619;BME280;72286;12.138;-68.936;2023-09-18T04:45:10;101118.58;;;29.07;71.48
82619;BME280;72286;12.138;-68.936;2023-09-18T04:48:48;101115.65;;;29.03;71.64
82619;BME280;72286;12.138;-68.936;2023-09-18T04:52:25;101113.73;;;29.03;71.75
82619;BME280;72286;12.138;-68.936;2023-09-18T04:56:04;101112.58;;;29.02;71.81
82619;BME280;72286;12.138;-68.936;2023-09-18T04:59:41;101109.11;;;28.99;71.78
82619;BME280;72286;12.138;-68.936;2023-09-18T05:03:21;101109.37;;;29.00;71.48
82619;BME280;72286;12.138;-68.936;2023-09-18T05:06:56;101098.69;;;28.98;71.77
82619;BME280;72286;12.138;-68.936;2023-09-18T05:10:35;101092.71;;;28.95;71.88
82619;BME280;72286;12.138;-68.936;2023-09-18T05:14:11;101085.34;;;28.93;71.69
82619;BME280;72286;12.138;-68.936;2023-09-18T05:17:50;101076.16;;;28.95;71.63
82619;BME280;72286;12.138;-68.936;2023-09-18T05:21:30;101071.23;;;28.96;71.93
82619;BME280;72286;12.138;-68.936;2023-09-18T05:25:09;101074.77;;;28.97;71.86
82619;BME280;72286;12.138;-68.936;2023-09-18T05:28:46;101074.63;;;28.96;71.94
82619;BME280;72286;12.138;-68.936;2023-09-18T05:32:24;101077.35;;;28.96;72.06
82619;BME280;72286;12.138;-68.936;2023-09-18T05:36:01;101074.48;;;28.98;71.80
82619;BME280;72286;12.138;-68.936;2023-09-18T05:39:40;101074.37;;;28.95;71.54
82619;BME280;72286;12.138;-68.936;2023-09-18T05:43:17;101076.32;;;28.94;71.62
82619;BME280;72286;12.138;-68.936;2023-09-18T05:46:55;101074.54;;;28.95;71.68
82619;BME280;72286;12.138;-68.936;2023-09-18T05:50:34;101074.45;;;28.96;71.67
82619;BME280;72286;12.138;-68.936;2023-09-18T05:54:14;101062.87;;;28.95;71.55
82619;BME280;72286;12.138;-68.936;2023-09-18T05:57:51;101054.16;;;28.94;71.65
82619;BME280;72286;12.138;-68.936;2023-09-18T06:01:30;101051.41;;;28.93;71.65
82619;BME280;72286;12.138;-68.936;2023-09-18T06:05:07;101047.97;;;28.91;71.97
82619;BME280;72286;12.138;-68.936;2023-09-18T06:08:48;101040.27;;;28.91;71.94
82619;BME280;72286;12.138;-68.936;2023-09-18T06:12:25;101033.52;;;28.92;71.98
82619;BME280;72286;12.138;-68.936;2023-09-18T06:16:05;101027.27;;;28.92;71.84
82619;BME280;72286;12.138;-68.936;2023-09-18T06:19:45;101029.52;;;28.91;72.17
82619;BME280;72286;12.138;-68.936;2023-09-18T06:23:23;101023.23;;;28.93;72.02
82619;BME280;72286;12.138;-68.936;2023-09-18T06:27:00;101011.94;;;28.92;72.04
82619;BME280;72286;12.138;-68.936;2023-09-18T06:30:38;101010.08;;;28.91;71.81
82619;BME280;72286;12.138;-68.936;2023-09-18T06:34:15;101000.95;;;28.90;71.81
82619;BME280;72286;12.138;-68.936;2023-09-18T06:37:54;100989.69;;;28.84;72.02
82619;BME280;72286;12.138;-68.936;2023-09-18T06:41:34;100987.45;;;28.85;71.85
82619;BME280;72286;12.138;-68.936;2023-09-18T06:45:12;100987.45;;;28.83;71.70
82619;BME280;72286;12.138;-68.936;2023-09-18T06:48:49;100980.48;;;28.81;71.89
82619;BME280;72286;12.138;-68.936;2023-09-18T06:52:28;100976.80;;;28.78;72.25
82619;BME280;72286;12.138;-68.936;2023-09-18T06:56:05;100973.47;;;28.74;72.54
82619;BME280;72286;12.138;-68.936;2023-09-18T06:59:43;100967.00;;;28.72;72.54
82619;BME280;72286;12.138;-68.936;2023-09-18T07:03:20;100960.63;;;28.73;72.40
82619;BME280;72286;12.138;-68.936;2023-09-18T07:07:19;100951.23;;;28.77;72.35
82619;BME280;72286;12.138;-68.936;2023-09-18T07:10:36;100947.92;;;28.76;72.73
82619;BME280;72286;12.138;-68.936;2023-09-18T07:14:14;100949.74;;;28.76;72.41
82619;BME280;72286;12.138;-68.936;2023-09-18T07:17:51;100950.82;;;28.78;72.20
82619;BME280;72286;12.138;-68.936;2023-09-18T07:21:30;100942.34;;;28.72;72.65
82619;BME280;72286;12.138;-68.936;2023-09-18T07:25:07;100942.40;;;28.75;72.48
82619;BME280;72286;12.138;-68.936;2023-09-18T07:28:46;100941.16;;;28.75;72.64
82619;BME280;72286;12.138;-68.936;2023-09-18T07:32:23;100941.11;;;28.76;72.69
82619;BME280;72286;12.138;-68.936;2023-09-18T07:36:02;100931.41;;;28.76;73.01
82619;BME280;72286;12.138;-68.936;2023-09-18T07:39:39;100939.64;;;28.74;72.78
82619;BME280;72286;12.138;-68.936;2023-09-18T07:43:20;100933.59;;;28.70;73.43
82619;BME280;72286;12.138;-68.936;2023-09-18T07:46:57;100930.77;;;28.70;73.38
82619;BME280;72286;12.138;-68.936;2023-09-18T07:50:35;100942.13;;;28.69;73.15
82619;BME280;72286;12.138;-68.936;2023-09-18T07:54:14;100947.24;;;28.68;72.95
82619;BME280;72286;12.138;-68.936;2023-09-18T07:57:53;100956.27;;;28.67;72.71
82619;BME280;72286;12.138;-68.936;2023-09-18T08:01:30;100967.27;;;28.66;72.68
82619;BME280;72286;12.138;-68.936;2023-09-18T08:05:09;100964.64;;;28.63;72.25
82619;BME280;72286;12.138;-68.936;2023-09-18T08:08:45;100964.72;;;28.62;72.28
82619;BME280;72286;12.138;-68.936;2023-09-18T08:12:24;100970.68;;;28.62;72.40
82619;BME280;72286;12.138;-68.936;2023-09-18T08:16:02;100969.29;;;28.61;72.34
82619;BME280;72286;12.138;-68.936;2023-09-18T08:19:40;100967.94;;;28.62;72.54
82619;BME280;72286;12.138;-68.936;2023-09-18T08:23:18;100966.27;;;28.61;72.71
82619;BME280;72286;12.138;-68.936;2023-09-18T08:26:56;100966.52;;;28.58;72.75
82619;BME280;72286;12.138;-68.936;2023-09-18T08:30:37;100969.24;;;28.56;72.85
82619;BME280;72286;12.138;-68.936;2023-09-18T08:34:11;100970.60;;;28.59;72.78
82619;BME280;72286;12.138;-68.936;2023-09-18T08:37:49;100964.95;;;28.59;72.72
82619;BME280;72286;12.138;-68.936;2023-09-18T08:41:28;100962.49;;;28.63;72.70
82619;BME280;72286;12.138;-68.936;2023-09-18T08:45:09;100965.38;;;28.63;72.77
82619;BME280;72286;12.138;-68.936;2023-09-18T08:48:49;100972.98;;;28.64;72.82
82619;BME280;72286;12.138;-68.936;2023-09-18T08:52:26;100980.23;;;28.63;72.88
82619;BME280;72286;12.138;-68.936;2023-09-18T08:56:05;100979.69;;;28.62;72.90
82619;BME280;72286;12.138;-68.936;2023-09-18T08:59:44;100980.98;;;28.61;72.64
82619;BME280;72286;12.138;-68.936;2023-09-18T09:03:42;100981.11;;;28.64;72.31
82619;BME280;72286;12.138;-68.936;2023-09-18T09:06:58;100980.80;;;28.61;72.38
82619;BME280;72286;12.138;-68.936;2023-09-18T09:10:37;100984.27;;;28.60;72.32
82619;BME280;72286;12.138;-68.936;2023-09-18T09:14:14;100985.75;;;28.62;72.03
82619;BME280;72286;12.138;-68.936;2023-09-18T09:18:06;100989.80;;;28.59;72.29
82619;BME280;72286;12.138;-68.936;2023-09-18T09:21:44;100992.67;;;28.59;72.51
82619;BME280;72286;12.138;-68.936;2023-09-18T09:29:14;100996.92;;;28.56;72.41
82619;BME280;72286;12.138;-68.936;2023-09-18T09:32:56;100994.77;;;28.56;72.23
82619;BME280;72286;12.138;-68.936;2023-09-18T09:36:33;100997.44;;;28.54;72.24
82619;BME280;72286;12.138;-68.936;2023-09-18T09:40:12;101000.40;;;28.52;72.03
82619;BME280;72286;12.138;-68.936;2023-09-18T09:43:50;100998.59;;;28.50;72.04
82619;BME280;72286;12.138;-68.936;2023-09-18T09:47:38;101003.19;;;28.52;72.08
82619;BME280;72286;12.138;-68.936;2023-09-18T09:51:17;101001.62;;;28.50;72.11
82619;BME280;72286;12.138;-68.936;2023-09-18T09:54:58;101004.82;;;28.48;72.28
82619;BME280;72286;12.138;-68.936;2023-09-18T09:58:35;101008.41;;;28.50;72.13
82619;BME280;72286;12.138;-68.936;2023-09-18T10:02:13;101009.61;;;28.53;71.97
82619;BME280;72286;12.138;-68.936;2023-09-18T10:05:56;101011.58;;;28.49;71.66
82619;BME280;72286;12.138;-68.936;2023-09-18T10:09:35;101010.52;;;28.47;71.51
82619;BME280;72286;12.138;-68.936;2023-09-18T10:17:08;101016.63;;;28.49;71.51
82619;BME280;72286;12.138;-68.936;2023-09-18T10:20:51;101014.13;;;28.47;71.70
82619;BME280;72286;12.138;-68.936;2023-09-18T10:24:36;101004.19;;;28.46;71.72
82619;BME280;72286;12.138;-68.936;2023-09-18T10:28:14;101002.52;;;28.46;71.73
82619;BME280;72286;12.138;-68.936;2023-09-18T10:31:53;101003.45;;;28.44;71.68
82619;BME280;72286;12.138;-68.936;2023-09-18T10:35:30;101011.17;;;28.48;71.61
82619;BME280;72286;12.138;-68.936;2023-09-18T10:39:09;101010.38;;;28.49;71.50
82619;BME280;72286;12.138;-68.936;2023-09-18T10:42:50;101011.07;;;28.49;71.34
82619;BME280;72286;12.138;-68.936;2023-09-18T10:46:30;101017.70;;;28.49;71.34
82619;BME280;72286;12.138;-68.936;2023-09-18T10:50:08;101021.51;;;28.49;71.37
82619;BME280;72286;12.138;-68.936;2023-09-18T10:53:47;101022.35;;;28.53;71.33
82619;BME280;72286;12.138;-68.936;2023-09-18T10:57:25;101027.65;;;28.56;71.21
82619;BME280;72286;12.138;-68.936;2023-09-18T11:01:04;101026.60;;;28.59;71.16
82619;BME280;72286;12.138;-68.936;2023-09-18T11:04:43;101035.30;;;28.64;70.84
82619;BME280;72286;12.138;-68.936;2023-09-18T11:08:28;101045.98;;;28.69;71.02
82619;BME280;72286;12.138;-68.936;2023-09-18T11:12:05;101053.98;;;28.72;70.83
82619;BME280;72286;12.138;-68.936;2023-09-18T11:15:43;101058.82;;;28.74;70.87
82619;BME280;72286;12.138;-68.936;2023-09-18T11:19:41;101075.27;;;28.81;70.72
82619;BME280;72286;12.138;-68.936;2023-09-18T11:23:19;101079.25;;;28.86;70.71
82619;BME280;72286;12.138;-68.936;2023-09-18T11:26:37;101086.92;;;29.07;70.04
82619;BME280;72286;12.138;-68.936;2023-09-18T11:30:18;101091.79;;;29.34;69.53
82619;BME280;72286;12.138;-68.936;2023-09-18T11:33:56;101090.02;;;29.66;68.33
82619;BME280;72286;12.138;-68.936;2023-09-18T11:37:34;101097.23;;;29.87;66.95
82619;BME280;72286;12.138;-68.936;2023-09-18T11:41:33;101109.30;;;30.05;65.97
82619;BME280;72286;12.138;-68.936;2023-09-18T11:45:18;101111.73;;;30.18;64.97
82619;BME280;72286;12.138;-68.936;2023-09-18T11:48:55;101117.14;;;30.36;64.87
82619;BME280;72286;12.138;-68.936;2023-09-18T11:52:34;101113.95;;;30.49;64.02
82619;BME280;72286;12.138;-68.936;2023-09-18T11:56:12;101132.06;;;30.57;63.88
82619;BME280;72286;12.138;-68.936;2023-09-18T11:59:54;101133.74;;;30.53;64.11
82619;BME280;72286;12.138;-68.936;2023-09-18T12:03:33;101142.71;;;30.69;63.29
82619;BME280;72286;12.138;-68.936;2023-09-18T12:07:11;101149.94;;;30.76;62.93
82619;BME280;72286;12.138;-68.936;2023-09-18T12:10:55;101158.83;;;30.72;63.37
82619;BME280;72286;12.138;-68.936;2023-09-18T12:14:33;101159.17;;;30.85;63.52
82619;BME280;72286;12.138;-68.936;2023-09-18T12:18:11;101166.89;;;30.85;62.95
82619;BME280;72286;12.138;-68.936;2023-09-18T12:21:49;101173.63;;;30.70;62.40
82619;BME280;72286;12.138;-68.936;2023-09-18T12:25:26;101178.01;;;30.54;63.22
82619;BME280;72286;12.138;-68.936;2023-09-18T12:29:04;101184.17;;;30.61;63.43
82619;BME280;72286;12.138;-68.936;2023-09-18T12:32:42;101191.66;;;30.77;62.41
82619;BME280;72286;12.138;-68.936;2023-09-18T12:36:20;101189.51;;;30.72;62.89
82619;BME280;72286;12.138;-68.936;2023-09-18T12:39:58;101191.66;;;30.85;62.72
82619;BME280;72286;12.138;-68.936;2023-09-18T12:43:40;101195.98;;;30.79;62.90
82619;BME280;72286;12.138;-68.936;2023-09-18T12:47:20;101195.11;;;30.88;63.22
82619;BME280;72286;12.138;-68.936;2023-09-18T12:51:05;101198.64;;;30.92;62.62
82619;BME280;72286;12.138;-68.936;2023-09-18T12:54:43;101200.55;;;31.05;62.31
82619;BME280;72286;12.138;-68.936;2023-09-18T12:58:23;101196.09;;;31.19;62.01
82619;BME280;72286;12.138;-68.936;2023-09-18T13:02:01;101197.77;;;31.32;61.84
82619;BME280;72286;12.138;-68.936;2023-09-18T13:05:41;101196.95;;;31.26;62.06
82619;BME280;72286;12.138;-68.936;2023-09-18T13:09:19;101206.42;;;31.27;62.20
82619;BME280;72286;12.138;-68.936;2023-09-18T13:12:57;101199.62;;;31.25;62.08
82619;BME280;72286;12.138;-68.936;2023-09-18T13:16:35;101209.85;;;31.32;62.33
82619;BME280;72286;12.138;-68.936;2023-09-18T13:20:15;101212.41;;;31.23;62.53
82619;BME280;72286;12.138;-68.936;2023-09-18T13:23:53;101209.55;;;31.28;62.73
82619;BME280;72286;12.138;-68.936;2023-09-18T13:27:31;101210.49;;;31.41;61.78
82619;BME280;72286;12.138;-68.936;2023-09-18T13:31:08;101202.83;;;31.66;60.81
82619;BME280;72286;12.138;-68.936;2023-09-18T13:34:46;101208.96;;;31.96;60.14
82619;BME280;72286;12.138;-68.936;2023-09-18T13:38:23;101208.05;;;32.12;58.96
82619;BME280;72286;12.138;-68.936;2023-09-18T13:42:02;101197.23;;;32.05;58.75
82619;BME280;72286;12.138;-68.936;2023-09-18T13:45:41;101194.67;;;32.20;58.12
82619;BME280;72286;12.138;-68.936;2023-09-18T13:49:21;101193.89;;;32.34;57.61
82619;BME280;72286;12.138;-68.936;2023-09-18T13:53:00;101188.08;;;32.44;57.95
82619;BME280;72286;12.138;-68.936;2023-09-18T13:56:41;101190.54;;;32.58;57.62
82619;BME280;72286;12.138;-68.936;2023-09-18T14:00:19;101196.31;;;32.66;57.37
82619;BME280;72286;12.138;-68.936;2023-09-18T14:03:58;101197.00;;;32.72;56.99
82619;BME280;72286;12.138;-68.936;2023-09-18T14:07:38;101200.11;;;32.81;56.97
82619;BME280;72286;12.138;-68.936;2023-09-18T14:11:15;101195.23;;;32.78;57.09
82619;BME280;72286;12.138;-68.936;2023-09-18T14:14:54;101196.75;;;32.80;56.83
82619;BME280;72286;12.138;-68.936;2023-09-18T14:18:32;101191.71;;;32.85;56.72
82619;BME280;72286;12.138;-68.936;2023-09-18T14:22:10;101194.35;;;32.90;56.22
82619;BME280;72286;12.138;-68.936;2023-09-18T14:25:48;101196.76;;;32.96;56.18
82619;BME280;72286;12.138;-68.936;2023-09-18T14:29:26;101196.39;;;32.99;56.05
82619;BME280;72286;12.138;-68.936;2023-09-18T14:33:04;101187.48;;;33.00;56.09
82619;BME280;72286;12.138;-68.936;2023-09-18T14:36:42;101187.98;;;33.04;55.90
82619;BME280;72286;12.138;-68.936;2023-09-18T14:40:20;101177.16;;;32.99;55.85
82619;BME280;72286;12.138;-68.936;2023-09-18T14:43:58;101176.74;;;33.01;54.71
82619;BME280;72286;12.138;-68.936;2023-09-18T14:47:35;101173.63;;;33.01;53.72
82619;BME280;72286;12.138;-68.936;2023-09-18T14:51:12;101171.56;;;33.01;53.84
82619;BME280;72286;12.138;-68.936;2023-09-18T14:54:51;101165.07;;;33.08;53.63
82619;BME280;72286;12.138;-68.936;2023-09-18T14:58:28;101168.09;;;33.24;53.12
82619;BME280;72286;12.138;-68.936;2023-09-18T15:02:06;101164.91;;;33.33;51.09
82619;BME280;72286;12.138;-68.936;2023-09-18T15:05:44;101159.04;;;33.38;52.16
82619;BME280;72286;12.138;-68.936;2023-09-18T15:09:23;101160.56;;;33.46;51.06
82619;BME280;72286;12.138;-68.936;2023-09-18T15:12:59;101152.84;;;33.42;51.50
82619;BME280;72286;12.138;-68.936;2023-09-18T15:16:38;101163.79;;;33.48;51.51
82619;BME280;72286;12.138;-68.936;2023-09-18T15:20:15;101160.62;;;33.68;51.09
82619;BME280;72286;12.138;-68.936;2023-09-18T15:23:54;101155.06;;;33.75;51.54
82619;BME280;72286;12.138;-68.936;2023-09-18T15:27:31;101154.66;;;33.74;51.07
82619;BME280;72286;12.138;-68.936;2023-09-18T15:31:09;101156.05;;;33.51;51.45
82619;BME280;72286;12.138;-68.936;2023-09-18T15:34:46;101147.64;;;33.63;52.27
82619;BME280;72286;12.138;-68.936;2023-09-18T15:38:24;101150.21;;;33.53;52.30
82619;BME280;72286;12.138;-68.936;2023-09-18T15:42:03;101150.61;;;33.28;51.91
82619;BME280;72286;12.138;-68.936;2023-09-18T15:45:41;101148.85;;;33.35;52.29
82619;BME280;72286;12.138;-68.936;2023-09-18T15:49:18;101153.06;;;33.52;52.56
82619;BME280;72286;12.138;-68.936;2023-09-18T15:52:57;101151.27;;;33.64;52.30
82619;BME280;72286;12.138;-68.936;2023-09-18T15:56:34;101142.21;;;33.69;52.71
82619;BME280;72286;12.138;-68.936;2023-09-18T16:00:14;101145.68;;;33.75;52.88
82619;BME280;72286;12.138;-68.936;2023-09-18T16:03:54;101140.52;;;33.47;53.65
82619;BME280;72286;12.138;-68.936;2023-09-18T16:07:36;101138.15;;;33.58;53.61
82619;BME280;72286;12.138;-68.936;2023-09-18T16:11:14;101127.36;;;33.64;53.60
82619;BME280;72286;12.138;-68.936;2023-09-18T16:14:52;101128.29;;;33.70;53.36
82619;BME280;72286;12.138;-68.936;2023-09-18T16:18:29;101123.16;;;33.77;52.30
82619;BME280;72286;12.138;-68.936;2023-09-18T16:22:07;101123.16;;;33.69;52.11
82619;BME280;72286;12.138;-68.936;2023-09-18T16:25:44;101129.95;;;33.74;52.03
82619;BME280;72286;12.138;-68.936;2023-09-18T16:29:27;101122.56;;;33.66;51.05
82619;BME280;72286;12.138;-68.936;2023-09-18T16:33:04;101117.02;;;33.70;51.56
82619;BME280;72286;12.138;-68.936;2023-09-18T16:36:42;101110.15;;;33.75;51.80
82619;BME280;72286;12.138;-68.936;2023-09-18T16:40:21;101101.84;;;33.76;51.91
82619;BME280;72286;12.138;-68.936;2023-09-18T16:43:58;101103.89;;;33.80;51.57
82619;BME280;72286;12.138;-68.936;2023-09-18T16:47:35;101094.13;;;33.83;51.32
82619;BME280;72286;12.138;-68.936;2023-09-18T16:51:14;101097.31;;;33.78;51.29
82619;BME280;72286;12.138;-68.936;2023-09-18T16:54:51;101094.34;;;33.80;50.40
82619;BME280;72286;12.138;-68.936;2023-09-18T16:58:29;101093.08;;;33.75;51.18
82619;BME280;72286;12.138;-68.936;2023-09-18T17:02:06;101087.02;;;33.71;51.08
82619;BME280;72286;12.138;-68.936;2023-09-18T17:05:45;101078.51;;;33.64;51.11
82619;BME280;72286;12.138;-68.936;2023-09-18T17:09:22;101063.55;;;33.68;51.39
82619;BME280;72286;12.138;-68.936;2023-09-18T17:13:00;101050.06;;;33.67;52.71
82619;BME280;72286;12.138;-68.936;2023-09-18T17:16:37;101044.30;;;33.94;52.03
82619;BME280;72286;12.138;-68.936;2023-09-18T17:20:16;101038.00;;;33.80;52.24
82619;BME280;72286;12.138;-68.936;2023-09-18T17:23:52;101041.13;;;33.66;51.86
82619;BME280;72286;12.138;-68.936;2023-09-18T17:27:31;101041.36;;;33.53;52.60
82619;BME280;72286;12.138;-68.936;2023-09-18T17:31:09;101023.38;;;33.50;52.82
82619;BME280;72286;12.138;-68.936;2023-09-18T17:34:47;101018.75;;;33.56;52.74
82619;BME280;72286;12.138;-68.936;2023-09-18T17:38:25;101013.60;;;33.66;53.11
82619;BME280;72286;12.138;-68.936;2023-09-18T17:42:03;101004.15;;;33.68;53.21
82619;BME280;72286;12.138;-68.936;2023-09-18T17:45:40;101008.34;;;33.40;53.63
82619;BME280;72286;12.138;-68.936;2023-09-18T17:49:19;101001.98;;;33.39;53.76
82619;BME280;72286;12.138;-68.936;2023-09-18T17:52:58;100989.82;;;33.32;53.98
82619;BME280;72286;12.138;-68.936;2023-09-18T17:56:37;100984.90;;;33.26;54.06
82619;BME280;72286;12.138;-68.936;2023-09-18T18:00:14;100988.23;;;33.22;54.02
82619;BME280;72286;12.138;-68.936;2023-09-18T18:03:52;100976.80;;;33.38;54.09
82619;BME280;72286;12.138;-68.936;2023-09-18T18:07:33;100975.71;;;33.42;53.63
82619;BME280;72286;12.138;-68.936;2023-09-18T18:11:31;100976.42;;;33.49;53.57
82619;BME280;72286;12.138;-68.936;2023-09-18T18:14:49;100970.23;;;33.51;53.59
82619;BME280;72286;12.138;-68.936;2023-09-18T18:18:29;100963.59;;;33.52;53.88
82619;BME280;72286;12.138;-68.936;2023-09-18T18:22:06;100955.94;;;33.56;53.93
82619;BME280;72286;12.138;-68.936;2023-09-18T18:25:44;100951.55;;;33.48;54.58
82619;BME280;72286;12.138;-68.936;2023-09-18T18:29:21;100948.09;;;33.53;54.52
82619;BME280;72286;12.138;-68.936;2023-09-18T18:32:59;100938.92;;;33.66;54.27
82619;BME280;72286;12.138;-68.936;2023-09-18T18:36:36;100932.73;;;33.73;54.68
82619;BME280;72286;12.138;-68.936;2023-09-18T18:40:16;100925.92;;;33.60;54.44